createdAt,value
2018-04-24T00:00:08.812Z,95073.16
2018-04-24T00:02:35.425Z,95076.32
2018-04-24T00:05:02.032Z,95062.41
2018-04-24T00:07:28.669Z,95068.02
2018-04-24T00:09:55.326Z,95065.62
2018-04-24T00:12:21.989Z,95068.08
2018-04-24T00:14:48.624Z,95063.98
2018-04-24T00:17:15.224Z,95073.26
2018-04-24T00:19:41.853Z,95066.33
2018-04-24T00:22:08.522Z,95071.47
2018-04-24T00:24:35.128Z,95066.06
2018-04-24T00:27:01.777Z,95071.67
2018-04-24T00:29:28.408Z,95072.38
2018-04-24T00:31:55.087Z,95069.15
2018-04-24T00:34:21.779Z,95070.75
2018-04-24T00:36:48.330Z,95072.61
2018-04-24T00:39:14.970Z,95068.56
2018-04-24T00:41:41.604Z,95079.82
2018-04-24T00:44:08.241Z,95076.09
2018-04-24T00:46:34.869Z,95089.60
2018-04-24T00:49:01.497Z,95089.98
2018-04-24T00:51:28.161Z,95093.77
2018-04-24T00:53:54.836Z,95096.95
2018-04-24T00:56:21.464Z,95098.48
2018-04-24T00:58:48.065Z,95102.05
2018-04-24T01:01:14.702Z,95101.67
2018-04-24T01:03:41.333Z,95108.70
2018-04-24T01:06:07.991Z,95107.19
2018-04-24T01:08:34.623Z,95107.66
2018-04-24T01:11:01.264Z,95106.15
2018-04-24T01:13:27.867Z,95106.91
2018-04-24T01:15:54.502Z,95109.01
2018-04-24T01:18:21.138Z,95106.61
2018-04-24T01:20:47.813Z,95112.27
2018-04-24T01:23:14.451Z,95112.05
2018-04-24T01:25:41.139Z,95109.53
2018-04-24T01:28:07.733Z,95108.55
2018-04-24T01:30:34.391Z,95093.56
2018-04-24T01:33:01.023Z,95102.12
2018-04-24T01:35:27.644Z,95110.28
2018-04-24T01:37:54.282Z,95106.11
2018-04-24T01:40:20.954Z,95108.23
2018-04-24T01:42:47.557Z,95102.41
2018-04-24T01:45:14.228Z,95106.11
2018-04-24T01:47:40.856Z,95099.05
2018-04-24T01:50:07.463Z,95100.69
2018-04-24T01:52:34.089Z,95104.14
2018-04-24T01:55:00.760Z,95099.46
2018-04-24T01:57:27.415Z,95102.75
2018-04-24T01:59:54.041Z,95107.94
2018-04-24T02:02:20.635Z,95109.33
2018-04-24T02:04:47.315Z,95114.59
2018-04-24T02:07:13.937Z,95118.84
2018-04-24T02:09:40.571Z,95117.45
2018-04-24T02:12:07.211Z,95117.36
2018-04-24T02:14:33.874Z,95119.90
2018-04-24T02:17:00.543Z,95110.72
2018-04-24T02:19:27.175Z,95127.68
2018-04-24T02:21:53.813Z,95125.50
2018-04-24T02:24:20.449Z,95123.98
2018-04-24T02:26:47.059Z,95131.84
2018-04-24T02:29:13.689Z,95126.97
2018-04-24T02:31:43.170Z,95135.43
2018-04-24T02:34:09.811Z,95132.40
2018-04-24T02:36:36.450Z,95139.85
2018-04-24T02:39:03.086Z,95138.45
2018-04-24T02:41:29.720Z,95141.66
2018-04-24T02:43:56.363Z,95142.55
2018-04-24T02:46:23.006Z,95144.47
2018-04-24T02:48:49.642Z,95143.13
2018-04-24T02:51:16.282Z,95149.02
2018-04-24T02:53:42.909Z,95140.59
2018-04-24T02:56:09.546Z,95141.73
2018-04-24T02:58:36.218Z,95134.70
2018-04-24T03:01:02.945Z,95136.27
2018-04-24T03:03:29.543Z,95138.23
2018-04-24T03:05:56.204Z,95137.57
2018-04-24T03:08:22.848Z,95132.72
2018-04-24T03:10:49.444Z,95138.35
2018-04-24T03:13:16.167Z,95134.36
2018-04-24T03:15:42.769Z,95132.00
2018-04-24T03:18:09.455Z,95129.09
2018-04-24T03:20:36.100Z,95131.91
2018-04-24T03:23:02.731Z,95134.91
2018-04-24T03:25:29.338Z,95132.13
2018-04-24T03:27:56.012Z,95130.73
2018-04-24T03:30:22.610Z,95136.45
2018-04-24T03:32:49.269Z,95139.61
2018-04-24T03:35:15.921Z,95130.45
2018-04-24T03:37:42.555Z,95138.66
2018-04-24T03:40:09.233Z,95144.43
2018-04-24T03:42:35.877Z,95141.27
2018-04-24T03:45:02.523Z,95138.75
2018-04-24T03:47:29.146Z,95141.84
2018-04-24T03:49:55.862Z,95150.05
2018-04-24T03:52:22.463Z,95147.77
2018-04-24T03:54:49.100Z,95145.31
2018-04-24T03:57:15.815Z,95152.41
2018-04-24T03:59:42.387Z,95148.31
2018-04-24T04:02:09.074Z,95152.35
2018-04-24T04:04:35.718Z,95163.05
2018-04-24T04:07:02.403Z,95156.89
2018-04-24T04:09:29.038Z,95170.02
2018-04-24T04:11:55.770Z,95166.88
2018-04-24T04:14:22.460Z,95161.37
2018-04-24T04:16:49.124Z,95170.08
2018-04-24T04:19:15.759Z,95181.15
2018-04-24T04:21:42.403Z,95179.67
2018-04-24T04:24:09.044Z,95182.54
2018-04-24T04:26:35.648Z,95185.27
2018-04-24T04:29:02.309Z,95188.83
2018-04-24T04:31:28.942Z,95190.82
2018-04-24T04:33:55.612Z,95189.33
2018-04-24T04:36:22.354Z,95190.02
2018-04-24T04:38:49.023Z,95195.36
2018-04-24T04:41:15.663Z,95184.33
2018-04-24T04:43:42.303Z,95200.38
2018-04-24T04:46:08.937Z,95198.53
2018-04-24T04:48:35.597Z,95201.78
2018-04-24T04:51:02.200Z,95195.14
2018-04-24T04:53:28.876Z,95195.36
2018-04-24T04:55:55.493Z,95196.45
2018-04-24T04:58:22.130Z,95193.88
2018-04-24T05:00:48.775Z,95199.80
2018-04-24T05:03:15.466Z,95195.42
2018-04-24T05:05:42.104Z,95198.38
2018-04-24T05:08:10.123Z,95194.98
2018-04-24T05:10:35.457Z,95195.99
2018-04-24T05:13:02.140Z,95197.28
2018-04-24T05:15:28.779Z,95205.04
2018-04-24T05:17:55.428Z,95204.03
2018-04-24T05:20:22.065Z,95198.00
2018-04-24T05:22:50.747Z,95201.59
2018-04-24T05:25:20.760Z,95199.19
2018-04-24T05:27:47.423Z,95208.75
2018-04-24T05:30:14.143Z,95207.66
2018-04-24T05:32:40.751Z,95206.72
2018-04-24T05:35:07.417Z,95208.95
2018-04-24T05:37:34.058Z,95213.80
2018-04-24T05:40:00.693Z,95210.23
2018-04-24T05:42:27.333Z,95208.77
2018-04-24T05:44:53.930Z,95214.47
2018-04-24T05:47:20.631Z,95215.52
2018-04-24T05:49:47.338Z,95218.92
2018-04-24T05:52:14.015Z,95216.14
2018-04-24T05:54:40.665Z,95213.59
2018-04-24T05:57:07.353Z,95218.19
2018-04-24T05:59:33.982Z,95212.20
2018-04-24T06:02:00.632Z,95211.39
2018-04-24T06:04:27.311Z,95211.03
2018-04-24T06:06:53.975Z,95211.23
2018-04-24T06:09:20.719Z,95213.27
2018-04-24T06:11:47.365Z,95216.61
2018-04-24T06:14:14.005Z,95216.84
2018-04-24T06:16:40.644Z,95217.45
2018-04-24T06:19:07.290Z,95219.73
2018-04-24T06:21:34.005Z,95212.27
2018-04-24T06:24:00.655Z,95219.65
2018-04-24T06:26:27.375Z,95217.32
2018-04-24T06:28:54.018Z,95217.48
2018-04-24T06:31:20.701Z,95220.06
2018-04-24T06:33:47.367Z,95218.58
2018-04-24T06:36:13.968Z,95224.09
2018-04-24T06:38:40.653Z,95224.34
2018-04-24T06:41:07.291Z,95224.25
2018-04-24T06:43:34.023Z,95224.36
2018-04-24T06:46:00.789Z,95226.97
2018-04-24T06:48:27.456Z,95220.80
2018-04-24T06:50:54.096Z,95221.67
2018-04-24T06:53:20.703Z,95221.97
2018-04-24T06:55:47.348Z,95225.61
2018-04-24T06:58:13.981Z,95228.30
2018-04-24T07:00:40.725Z,95220.80
2018-04-24T07:03:07.292Z,95225.47
2018-04-24T07:05:33.928Z,95227.50
2018-04-24T07:08:00.561Z,95236.95
2018-04-24T07:10:27.246Z,95225.63
2018-04-24T07:12:53.863Z,95224.51
2018-04-24T07:15:20.509Z,95229.00
2018-04-24T07:17:47.191Z,95231.64
2018-04-24T07:20:13.828Z,95227.44
2018-04-24T07:22:40.459Z,95232.02
2018-04-24T07:25:07.075Z,95233.39
2018-04-24T07:27:33.898Z,95231.31
2018-04-24T07:30:00.538Z,95235.65
2018-04-24T07:32:27.198Z,95237.82
2018-04-24T07:34:53.912Z,95240.44
2018-04-24T07:37:20.573Z,95238.25
2018-04-24T07:39:47.318Z,95240.01
2018-04-24T07:42:13.994Z,95237.06
2018-04-24T07:44:40.632Z,95235.98
2018-04-24T07:47:07.234Z,95230.19
2018-04-24T07:49:33.873Z,95233.94
2018-04-24T07:52:00.536Z,95230.81
2018-04-24T07:54:27.181Z,95228.41
2018-04-24T07:56:53.823Z,95229.05
2018-04-24T07:59:20.530Z,95225.50
2018-04-24T08:01:47.122Z,95224.05
2018-04-24T08:04:13.799Z,95224.63
2018-04-24T08:06:40.446Z,95218.95
2018-04-24T08:09:07.082Z,95219.42
2018-04-24T08:11:33.722Z,95221.52
2018-04-24T08:14:00.352Z,95220.17
2018-04-24T08:16:27.074Z,95218.66
2018-04-24T08:18:53.651Z,95216.37
2018-04-24T08:21:20.339Z,95215.13
2018-04-24T08:23:47.029Z,95210.25
2018-04-24T08:26:13.673Z,95209.57
2018-04-24T08:28:40.286Z,95206.63
2018-04-24T08:31:07.079Z,95205.98
2018-04-24T08:33:33.921Z,95212.56
2018-04-24T08:36:00.490Z,95208.02
2018-04-24T08:38:27.249Z,95203.36
2018-04-24T08:40:53.915Z,95210.87
2018-04-24T08:43:20.624Z,95202.82
2018-04-24T08:45:47.300Z,95204.39
2018-04-24T08:48:13.912Z,95200.99
2018-04-24T08:50:40.591Z,95203.00
2018-04-24T08:53:07.369Z,95201.45
2018-04-24T08:55:33.897Z,95200.63
2018-04-24T08:58:00.567Z,95202.38
2018-04-24T09:00:27.202Z,95196.89
2018-04-24T09:02:53.848Z,95196.44
2018-04-24T09:05:20.477Z,95194.33
2018-04-24T09:07:47.160Z,95192.92
2018-04-24T09:10:13.758Z,95184.44
2018-04-24T09:12:40.430Z,95189.78
2018-04-24T09:15:07.216Z,95190.05
2018-04-24T09:17:33.845Z,95188.05
2018-04-24T09:20:00.492Z,95185.86
2018-04-24T09:22:27.202Z,95187.20
2018-04-24T09:24:53.799Z,95176.25
2018-04-24T09:27:20.471Z,95177.77
2018-04-24T09:29:47.161Z,95174.41
2018-04-24T09:32:13.791Z,95171.70
2018-04-24T09:34:40.473Z,95170.66
2018-04-24T09:37:07.099Z,95162.28
2018-04-24T09:39:35.036Z,95164.98
2018-04-24T09:42:00.338Z,95160.68
2018-04-24T09:44:27.065Z,95157.95
2018-04-24T09:46:53.718Z,95155.72
2018-04-24T09:49:20.405Z,95155.65
2018-04-24T09:51:47.009Z,95151.50
2018-04-24T09:54:13.679Z,95145.79
2018-04-24T09:56:40.301Z,95140.02
2018-04-24T09:59:06.933Z,95145.14
2018-04-24T10:01:36.881Z,95144.06
2018-04-24T10:04:03.520Z,95138.70
2018-04-24T10:06:30.251Z,95132.55
2018-04-24T10:08:56.826Z,95128.61
2018-04-24T10:11:24.572Z,95129.64
2018-04-24T10:13:51.207Z,95127.84
2018-04-24T10:16:17.892Z,95124.06
2018-04-24T10:18:44.537Z,95114.95
2018-04-24T10:21:11.255Z,95112.92
2018-04-24T10:23:37.901Z,95113.45
2018-04-24T10:26:04.620Z,95109.81
2018-04-24T10:28:31.319Z,95101.70
2018-04-24T10:30:58.018Z,95107.61
2018-04-24T10:33:24.591Z,95100.77
2018-04-24T10:35:51.235Z,95099.08
2018-04-24T10:38:17.990Z,95097.16
2018-04-24T10:40:44.701Z,95097.97
2018-04-24T10:43:11.345Z,95092.40
2018-04-24T10:45:38.003Z,95091.70
2018-04-24T10:48:04.706Z,95088.69
2018-04-24T10:50:31.322Z,95079.63
2018-04-24T10:52:57.966Z,95069.86
2018-04-24T10:55:24.629Z,95067.50
2018-04-24T10:57:51.262Z,95063.95
2018-04-24T11:00:17.993Z,95068.05
2018-04-24T11:02:44.590Z,95065.30
2018-04-24T11:05:11.265Z,95066.97
2018-04-24T11:07:37.979Z,95067.22
2018-04-24T11:10:04.619Z,95065.48
2018-04-24T11:12:31.256Z,95056.55
2018-04-24T11:14:57.965Z,95044.97
2018-04-24T11:17:24.849Z,95049.03
2018-04-24T11:19:51.491Z,95047.98
2018-04-24T11:22:18.213Z,95042.80
2018-04-24T11:24:44.898Z,95037.59
2018-04-24T11:27:14.823Z,95031.42
2018-04-24T11:29:41.545Z,95029.33
2018-04-24T11:32:08.215Z,95021.69
2018-04-24T11:34:34.886Z,95024.74
2018-04-24T11:37:01.529Z,95019.18
2018-04-24T11:39:28.219Z,95026.01
2018-04-24T11:41:54.910Z,95017.35
2018-04-24T11:44:21.619Z,95014.45
2018-04-24T11:46:48.304Z,95011.09
2018-04-24T11:49:14.945Z,95015.61
2018-04-24T11:51:41.610Z,95014.14
2018-04-24T11:54:11.068Z,95000.48
2018-04-24T11:56:37.735Z,95012.26
2018-04-24T11:59:04.455Z,95003.83
2018-04-24T12:01:31.093Z,95000.52
2018-04-24T12:03:57.795Z,94987.80
2018-04-24T12:06:24.500Z,94992.22
2018-04-24T12:08:51.126Z,94993.28
2018-04-24T12:11:17.791Z,94992.50
2018-04-24T12:13:44.475Z,94985.48
2018-04-24T12:16:11.084Z,94989.42
2018-04-24T12:18:37.762Z,94979.70
2018-04-24T12:21:04.477Z,94969.75
2018-04-24T12:23:33.665Z,94967.67
2018-04-24T12:26:01.360Z,94971.29
2018-04-24T12:28:27.996Z,94965.46
2018-04-24T12:30:54.696Z,94963.05
2018-04-24T12:33:21.300Z,94961.02
2018-04-24T12:35:48.009Z,94957.65
2018-04-24T12:38:14.758Z,94957.57
2018-04-24T12:40:41.366Z,94952.52
2018-04-24T12:43:08.094Z,94951.35
2018-04-24T12:45:34.709Z,94946.86
2018-04-24T12:48:01.457Z,94941.14
2018-04-24T12:50:28.204Z,94938.58
2018-04-24T12:52:54.859Z,94936.59
2018-04-24T12:55:21.744Z,94927.84
2018-04-24T12:57:48.390Z,94931.23
2018-04-24T13:00:15.080Z,94929.30
2018-04-24T13:02:41.743Z,94927.58
2018-04-24T13:05:08.447Z,94922.45
2018-04-24T13:07:35.071Z,94921.92
2018-04-24T13:10:01.826Z,94918.12
2018-04-24T13:12:28.428Z,94914.53
2018-04-24T13:14:55.056Z,94908.84
2018-04-24T13:17:21.736Z,94907.67
2018-04-24T13:19:48.364Z,94910.89
2018-04-24T13:22:15.010Z,94907.80
2018-04-24T13:24:41.680Z,94901.58
2018-04-24T13:27:08.383Z,94905.87
2018-04-24T13:29:35.034Z,94904.95
2018-04-24T13:32:01.652Z,94907.59
2018-04-24T13:34:28.298Z,94903.20
2018-04-24T13:36:55.021Z,94896.34
2018-04-24T13:39:21.734Z,94898.25
2018-04-24T13:41:48.474Z,94899.91
2018-04-24T13:44:15.127Z,94899.34
2018-04-24T13:46:41.909Z,94892.22
2018-04-24T13:49:08.564Z,94893.42
2018-04-24T13:51:35.357Z,94889.16
2018-04-24T13:54:02.128Z,94891.95
2018-04-24T13:56:28.734Z,94889.54
2018-04-24T13:58:55.405Z,94886.08
2018-04-24T14:01:22.055Z,94886.92
2018-04-24T14:03:48.695Z,94887.39
2018-04-24T14:06:15.431Z,94873.70
2018-04-24T14:08:41.969Z,94879.45
2018-04-24T14:11:08.683Z,94880.84
2018-04-24T14:13:35.326Z,94873.28
2018-04-24T14:16:01.957Z,94869.86
2018-04-24T14:18:28.591Z,94872.44
2018-04-24T14:20:55.225Z,94870.84
2018-04-24T14:23:21.862Z,94873.14
2018-04-24T14:25:48.502Z,94867.31
2018-04-24T14:28:15.136Z,94875.81
2018-04-24T14:30:41.782Z,94871.69
2018-04-24T14:33:08.456Z,94874.27
2018-04-24T14:35:35.091Z,94877.94
2018-04-24T14:38:01.691Z,94874.55
2018-04-24T14:40:28.421Z,94874.30
2018-04-24T14:42:55.016Z,94878.50
2018-04-24T14:45:21.651Z,94878.39
2018-04-24T14:47:48.300Z,94873.86
2018-04-24T14:50:15.051Z,94869.59
2018-04-24T14:52:41.684Z,94869.25
2018-04-24T14:55:08.286Z,94863.64
2018-04-24T14:57:34.922Z,94864.51
2018-04-24T15:00:01.578Z,94866.19
2018-04-24T15:02:28.263Z,94864.09
2018-04-24T15:04:54.899Z,94867.19
2018-04-24T15:07:21.570Z,94869.06
2018-04-24T15:09:49.129Z,94864.74
2018-04-24T15:12:15.740Z,94857.31
2018-04-24T15:14:42.464Z,94860.16
2018-04-24T15:17:09.168Z,94857.34
2018-04-24T15:19:35.840Z,94853.88
2018-04-24T15:22:02.478Z,94858.96
2018-04-24T15:24:29.081Z,94853.77
2018-04-24T15:26:55.743Z,94856.70
2018-04-24T15:29:22.395Z,94855.21
2018-04-24T15:31:48.993Z,94855.64
2018-04-24T15:34:15.677Z,94851.73
2018-04-24T15:36:42.283Z,94855.26
2018-04-24T15:39:08.942Z,94851.81
2018-04-24T15:41:35.591Z,94856.23
2018-04-24T15:44:02.190Z,94833.92
2018-04-24T15:46:28.911Z,94856.63
2018-04-24T15:48:55.537Z,94861.80
2018-04-24T15:51:22.209Z,94863.27
2018-04-24T15:53:48.847Z,94864.11
2018-04-24T15:56:15.455Z,94866.45
2018-04-24T15:58:42.128Z,94857.06
2018-04-24T16:01:08.856Z,94854.95
2018-04-24T16:03:35.496Z,94857.91
2018-04-24T16:06:02.145Z,94853.91
2018-04-24T16:08:28.783Z,94855.05
2018-04-24T16:10:55.493Z,94852.99
2018-04-24T16:13:22.123Z,94843.61
2018-04-24T16:15:48.808Z,94853.31
2018-04-24T16:18:15.447Z,94849.48
2018-04-24T16:20:42.113Z,94847.49
2018-04-24T16:23:08.726Z,94847.05
2018-04-24T16:25:35.357Z,94851.42
2018-04-24T16:28:02.026Z,94852.73
2018-04-24T16:30:28.712Z,94855.75
2018-04-24T16:32:55.339Z,94860.46
2018-04-24T16:35:21.947Z,94867.29
2018-04-24T16:37:48.610Z,94868.20
2018-04-24T16:40:15.257Z,94869.23
2018-04-24T16:42:41.918Z,94864.44
2018-04-24T16:45:08.522Z,94869.57
2018-04-24T16:47:35.203Z,94870.59
2018-04-24T16:50:01.801Z,94876.84
2018-04-24T16:52:28.473Z,94878.56
2018-04-24T16:54:55.108Z,94878.25
2018-04-24T16:57:21.781Z,94881.95
2018-04-24T16:59:48.451Z,94883.30
2018-04-24T17:02:15.090Z,94894.05
2018-04-24T17:04:41.763Z,94896.19
2018-04-24T17:07:08.398Z,94896.20
2018-04-24T17:09:35.067Z,94907.07
2018-04-24T17:12:01.667Z,94910.03
2018-04-24T17:14:28.319Z,94915.56
2018-04-24T17:16:55.024Z,94915.79
2018-04-24T17:19:21.618Z,94923.11
2018-04-24T17:21:48.309Z,94931.73
2018-04-24T17:24:14.938Z,94938.53
2018-04-24T17:26:41.606Z,94948.66
2018-04-24T17:29:08.243Z,94956.17
2018-04-24T17:31:34.841Z,94965.05
2018-04-24T17:34:01.563Z,94972.85
2018-04-24T17:36:28.163Z,94974.97
2018-04-24T17:38:54.948Z,94979.18
2018-04-24T17:41:21.575Z,94980.13
2018-04-24T17:43:48.220Z,94989.34
2018-04-24T17:46:14.850Z,94998.94
2018-04-24T17:48:41.528Z,95015.41
2018-04-24T17:51:08.161Z,95030.19
2018-04-24T17:53:34.766Z,95015.67
2018-04-24T17:56:01.438Z,95016.33
2018-04-24T17:58:28.069Z,95016.47
2018-04-24T18:00:54.710Z,95011.66
2018-04-24T18:03:21.347Z,95014.76
2018-04-24T18:05:48.940Z,95020.88
2018-04-24T18:08:14.599Z,95030.66
2018-04-24T18:10:41.260Z,95036.77
2018-04-24T18:13:07.903Z,95042.98
2018-04-24T18:15:34.521Z,95057.97
2018-04-24T18:18:01.162Z,95058.72
2018-04-24T18:20:27.820Z,95066.59
2018-04-24T18:22:54.467Z,95068.17
2018-04-24T18:25:21.107Z,95069.64
2018-04-24T18:27:47.856Z,95071.13
2018-04-24T18:30:14.397Z,95077.29
2018-04-24T18:32:41.058Z,95066.55
2018-04-24T18:35:07.737Z,95057.24
2018-04-24T18:37:34.341Z,95041.49
2018-04-24T18:40:01.017Z,95033.58
2018-04-24T18:42:27.651Z,95027.94
2018-04-24T18:44:54.345Z,95045.34
2018-04-24T18:47:20.992Z,95058.66
2018-04-24T18:49:47.662Z,95056.46
2018-04-24T18:52:14.352Z,95060.52
2018-04-24T18:54:40.957Z,95052.48
2018-04-24T18:57:07.618Z,95057.66
2018-04-24T18:59:34.263Z,95065.22
2018-04-24T19:02:00.897Z,95069.98
2018-04-24T19:04:29.021Z,95074.41
2018-04-24T19:06:54.141Z,95071.30
2018-04-24T19:09:20.797Z,95065.34
2018-04-24T19:11:47.544Z,95068.02
2018-04-24T19:14:14.175Z,95071.53
2018-04-24T19:16:40.827Z,95067.36
2018-04-24T19:19:07.495Z,95070.71
2018-04-24T19:21:34.172Z,95071.33
2018-04-24T19:24:00.809Z,95099.70
2018-04-24T19:26:27.484Z,95106.42
2018-04-24T19:28:54.109Z,95110.34
2018-04-24T19:31:20.842Z,95111.70
2018-04-24T19:33:47.453Z,95117.77
2018-04-24T19:36:14.089Z,95119.47
2018-04-24T19:38:40.737Z,95127.81
2018-04-24T19:41:07.419Z,95135.59
2018-04-24T19:43:34.040Z,95128.87
2018-04-24T19:46:00.757Z,95122.95
2018-04-24T19:48:27.357Z,95123.58
2018-04-24T19:50:54.109Z,95117.33
2018-04-24T19:53:20.747Z,95120.81
2018-04-24T19:55:47.387Z,95124.78
2018-04-24T19:58:13.988Z,95137.06
2018-04-24T20:00:40.626Z,95162.28
2018-04-24T20:03:07.270Z,95177.28
2018-04-24T20:05:33.908Z,95188.14
2018-04-24T20:08:00.577Z,95198.83
2018-04-24T20:10:27.275Z,95199.09
2018-04-24T20:12:53.861Z,95202.89
2018-04-24T20:15:20.488Z,95213.03
2018-04-24T20:17:47.091Z,95220.22
2018-04-24T20:20:13.811Z,95234.70
2018-04-24T20:22:40.412Z,95242.95
2018-04-24T20:25:07.078Z,95248.55
2018-04-24T20:27:33.685Z,95265.05
2018-04-24T20:30:00.314Z,95281.76
2018-04-24T20:32:27.028Z,95292.47
2018-04-24T20:34:53.659Z,95288.08
2018-04-24T20:37:20.252Z,95253.23
2018-04-24T20:39:46.944Z,95227.36
2018-04-24T20:42:13.571Z,95245.75
2018-04-24T20:44:40.178Z,95253.04
2018-04-24T20:47:06.936Z,95239.82
2018-04-24T20:49:33.572Z,95216.77
2018-04-24T20:52:00.166Z,95215.69
2018-04-24T20:54:26.840Z,95208.79
2018-04-24T20:56:53.480Z,95218.05
2018-04-24T20:59:20.141Z,95236.31
2018-04-24T21:01:46.736Z,95246.20
2018-04-24T21:04:13.396Z,95246.62
2018-04-24T21:06:40.002Z,95237.20
2018-04-24T21:09:06.651Z,95228.61
2018-04-24T21:11:33.287Z,95230.48
2018-04-24T21:13:59.952Z,95229.67
2018-04-24T21:16:26.594Z,95242.48
2018-04-24T21:18:53.229Z,95234.86
2018-04-24T21:21:19.858Z,95233.59
2018-04-24T21:23:46.500Z,95241.89
2018-04-24T21:26:13.227Z,95231.87
2018-04-24T21:28:39.730Z,95235.92
2018-04-24T21:31:06.378Z,95235.98
2018-04-24T21:33:33.039Z,95225.98
2018-04-24T21:35:59.719Z,95224.53
2018-04-24T21:38:26.319Z,95231.66
2018-04-24T21:40:52.985Z,95232.31
2018-04-24T21:43:19.626Z,95226.48
2018-04-24T21:45:46.278Z,95219.20
2018-04-24T21:48:12.958Z,95214.23
2018-04-24T21:50:39.671Z,95208.83
2018-04-24T21:53:06.291Z,95191.06
2018-04-24T21:55:33.004Z,95181.03
2018-04-24T21:57:59.641Z,95166.83
2018-04-24T22:00:26.326Z,95160.73
2018-04-24T22:02:52.950Z,95171.95
2018-04-24T22:05:19.623Z,95182.78
2018-04-24T22:07:46.284Z,95189.27
2018-04-24T22:10:12.924Z,95183.70
2018-04-24T22:12:39.557Z,95188.47
2018-04-24T22:15:06.204Z,95180.00
2018-04-24T22:17:32.830Z,95180.75
2018-04-24T22:19:59.464Z,95178.48
2018-04-24T22:22:26.142Z,95174.09
2018-04-24T22:24:52.894Z,95170.52
2018-04-24T22:27:19.555Z,95170.66
2018-04-24T22:29:46.164Z,95168.13
2018-04-24T22:32:12.845Z,95162.80
2018-04-24T22:34:39.487Z,95163.86
2018-04-24T22:37:06.118Z,95161.92
2018-04-24T22:39:32.786Z,95164.75
2018-04-24T22:41:59.412Z,95163.41
2018-04-24T22:44:26.018Z,95161.31
2018-04-24T22:46:52.653Z,95162.28
2018-04-24T22:49:19.366Z,95159.00
2018-04-24T22:51:45.992Z,95160.34
2018-04-24T22:54:12.589Z,95151.08
2018-04-24T22:56:39.256Z,95153.69
2018-04-24T22:59:05.895Z,95148.17
2018-04-24T23:01:32.532Z,95152.96
2018-04-24T23:03:59.217Z,95157.77
2018-04-24T23:06:25.853Z,95156.72
2018-04-24T23:08:52.512Z,95159.47
2018-04-24T23:11:19.147Z,95160.78
2018-04-24T23:13:45.867Z,95159.55
2018-04-24T23:16:12.532Z,95168.15
2018-04-24T23:18:39.132Z,95169.30
2018-04-24T23:21:05.808Z,95176.75
2018-04-24T23:23:32.469Z,95188.53
2018-04-24T23:25:59.104Z,95191.14
2018-04-24T23:28:25.694Z,95189.13
2018-04-24T23:30:52.334Z,95189.63
2018-04-24T23:33:18.995Z,95195.49
2018-04-24T23:35:45.669Z,95194.70
2018-04-24T23:38:12.270Z,95192.77
2018-04-24T23:40:38.991Z,95184.55
2018-04-24T23:43:05.628Z,95180.56
2018-04-24T23:45:32.259Z,95190.28
2018-04-24T23:47:58.870Z,95188.34
2018-04-24T23:50:25.573Z,95194.33
2018-04-24T23:52:52.220Z,95191.80
2018-04-24T23:55:18.909Z,95187.28
2018-04-24T23:57:45.571Z,95190.19
